Time;durP1;ratioP1;P1;durP2;ratioP2;P2;SDS_P1;SDS_P2;PMS_P1;PMS_P2;Temp;Humidity;BMP_temperature;BMP_pressure;BME280_temperature;BME280_humidity;BME280_pressure;Samples;Min_cycle;Max_cycle;Signal;HPM_P1;HPM_P2
2022/01/09 00:01:29;;;;;;;7.60;1.27;;;9.10;1.00;;;;;;5093366;28;20201;-71
2022/01/09 00:03:56;;;;;;;5.83;2.10;;;9.10;1.00;;;;;;5093284;28;20247;-71
2022/01/09 00:06:23;;;;;;;13.77;3.20;;;9.10;1.00;;;;;;5093485;28;20286;-69
2022/01/09 00:08:50;;;;;;;12.47;2.87;;;9.10;1.00;;;;;;5093743;28;20572;-69
2022/01/09 00:11:25;;;;;;;8.67;1.90;;;9.20;1.00;;;;;;5093004;28;20265;-69
2022/01/09 00:13:53;;;;;;;7.97;2.30;;;9.20;1.00;;;;;;5093476;28;20294;-69
2022/01/09 00:16:20;;;;;;;9.67;2.90;;;9.20;1.00;;;;;;5092921;28;20201;-70
2022/01/09 00:18:47;;;;;;;12.93;3.33;;;9.20;1.00;;;;;;5092743;28;20567;-69
2022/01/09 00:21:14;;;;;;;7.17;2.27;;;9.20;1.00;;;;;;5092774;28;20284;-69
2022/01/09 00:23:42;;;;;;;6.63;2.97;;;9.20;1.00;;;;;;5093084;28;20197;-69
2022/01/09 00:26:09;;;;;;;5.40;2.27;;;9.20;1.00;;;;;;5092542;28;20602;-70
2022/01/09 00:28:37;;;;;;;8.37;2.03;;;9.10;1.00;;;;;;5093070;28;20197;-69
2022/01/09 00:31:04;;;;;;;4.63;1.40;;;9.20;1.00;;;;;;5092613;28;20250;-69
2022/01/09 00:33:31;;;;;;;6.73;2.30;;;9.20;1.00;;;;;;5092664;28;20629;-70
2022/01/09 00:35:58;;;;;;;4.73;1.60;;;9.20;1.00;;;;;;5091405;28;20206;-71
2022/01/09 00:38:25;;;;;;;2.27;0.80;;;9.20;1.00;;;;;;5092891;28;20253;-70
2022/01/09 00:40:52;;;;;;;1.43;0.70;;;9.20;1.00;;;;;;5092762;28;20205;-75
2022/01/09 00:43:19;;;;;;;6.00;0.63;;;9.20;1.00;;;;;;5091973;28;20623;-71
2022/01/09 00:45:48;;;;;;;2.30;0.90;;;9.10;1.00;;;;;;5092290;28;20649;-70
2022/01/09 00:48:15;;;;;;;1.93;0.80;;;9.00;1.00;;;;;;5092132;28;20893;-70
2022/01/09 00:50:43;;;;;;;6.80;1.20;;;9.00;1.00;;;;;;5092562;28;20202;-70
2022/01/09 00:53:10;;;;;;;4.60;1.07;;;9.00;1.00;;;;;;5091895;28;20214;-70
2022/01/09 00:55:37;;;;;;;2.57;0.93;;;9.00;1.00;;;;;;5092358;28;20206;-68
2022/01/09 00:58:04;;;;;;;11.00;1.70;;;9.00;1.00;;;;;;5092102;28;20197;-70
2022/01/09 01:00:35;;;;;;;3.97;2.00;;;8.90;1.00;;;;;;5092001;28;20584;-70
2022/01/09 01:03:03;;;;;;;5.33;1.27;;;9.00;1.00;;;;;;5091857;28;20220;-71
2022/01/09 01:05:30;;;;;;;4.60;1.67;;;8.90;1.00;;;;;;5091846;28;20229;-71
2022/01/09 01:07:57;;;;;;;9.77;1.30;;;9.00;1.00;;;;;;5091564;28;20673;-70
2022/01/09 01:10:24;;;;;;;6.77;1.53;;;9.00;1.00;;;;;;5092581;28;20206;-70
2022/01/09 01:12:51;;;;;;;8.87;1.33;;;9.10;1.00;;;;;;5092299;28;20727;-72
2022/01/09 01:15:18;;;;;;;3.87;1.47;;;9.00;1.00;;;;;;5091391;28;20620;-69
2022/01/09 01:17:45;;;;;;;6.83;1.07;;;9.00;1.00;;;;;;5091800;28;20205;-70
2022/01/09 01:20:20;;;;;;;8.10;1.93;;;9.00;1.00;;;;;;5091456;28;20748;-69
2022/01/09 01:22:47;;;;;;;7.73;1.70;;;9.00;1.00;;;;;;5091877;28;20206;-70
2022/01/09 01:25:14;;;;;;;6.57;2.53;;;9.10;1.00;;;;;;5091281;28;20611;-69
2022/01/09 01:27:41;;;;;;;3.70;1.40;;;9.10;1.00;;;;;;5091855;28;20258;-70
2022/01/09 01:30:09;;;;;;;8.87;2.50;;;9.00;1.00;;;;;;5091066;28;20254;-70
2022/01/09 01:32:36;;;;;;;4.17;2.40;;;9.00;1.00;;;;;;5091606;28;20227;-72
2022/01/09 01:35:03;;;;;;;6.30;2.00;;;8.90;1.00;;;;;;5091196;28;20209;-72
2022/01/09 01:37:31;;;;;;;3.03;1.93;;;8.90;1.00;;;;;;5091894;28;20197;-71
2022/01/09 01:39:58;;;;;;;5.60;1.70;;;8.90;1.00;;;;;;5091271;28;20684;-71
2022/01/09 01:42:25;;;;;;;5.80;2.50;;;8.90;1.00;;;;;;5091503;28;20228;-72
2022/01/09 01:44:52;;;;;;;4.37;2.03;;;8.90;1.00;;;;;;5091506;28;20216;-72
2022/01/09 01:47:21;;;;;;;11.10;1.73;;;8.90;1.00;;;;;;5091058;28;20637;-71
2022/01/09 01:49:49;;;;;;;8.17;1.60;;;8.90;1.00;;;;;;5091400;28;20625;-73
2022/01/09 01:52:17;;;;;;;7.60;2.17;;;8.90;1.00;;;;;;5091121;28;20212;-69
2022/01/09 01:54:46;;;;;;;3.50;1.20;;;8.80;1.00;;;;;;5091266;28;20738;-70
2022/01/09 01:57:13;;;;;;;4.57;1.60;;;8.90;1.00;;;;;;5090809;28;20210;-69
2022/01/09 01:59:40;;;;;;;8.37;2.30;;;8.90;1.00;;;;;;5091076;28;20262;-70
2022/01/09 02:02:07;;;;;;;12.33;2.63;;;8.90;1.00;;;;;;5090720;28;20202;-69
2022/01/09 02:04:34;;;;;;;5.67;2.67;;;8.90;1.00;;;;;;5091325;28;20255;-70
2022/01/09 02:07:04;;;;;;;11.80;4.10;;;8.80;1.00;;;;;;5090786;28;20229;-70
2022/01/09 02:09:31;;;;;;;13.50;3.17;;;8.80;1.00;;;;;;5091265;28;20198;-70
2022/01/09 02:12:00;;;;;;;10.77;2.87;;;8.80;1.00;;;;;;5090560;28;20209;-69
2022/01/09 02:14:27;;;;;;;9.57;2.83;;;8.80;1.00;;;;;;5090851;28;20209;-69
2022/01/09 02:16:54;;;;;;;13.73;3.30;;;8.90;1.00;;;;;;5091161;28;20201;-68
2022/01/09 02:19:21;;;;;;;14.67;4.17;;;8.90;1.00;;;;;;5090835;28;20658;-69
2022/01/09 02:21:50;;;;;;;14.27;3.63;;;8.90;1.00;;;;;;5091040;28;20262;-69
2022/01/09 02:24:18;;;;;;;12.20;3.57;;;8.90;1.00;;;;;;5090610;28;20209;-72
2022/01/09 02:26:45;;;;;;;7.87;2.77;;;9.00;1.00;;;;;;5090868;28;20240;-68
2022/01/09 02:29:12;;;;;;;15.07;3.73;;;9.00;1.00;;;;;;5090033;28;20672;-68
2022/01/09 02:31:39;;;;;;;14.93;3.37;;;8.90;1.00;;;;;;5091012;28;20205;-68
2022/01/09 02:34:06;;;;;;;18.57;5.97;;;9.00;1.00;;;;;;5090597;28;20254;-70
2022/01/09 02:36:33;;;;;;;27.53;4.67;;;9.00;1.00;;;;;;5090727;28;20742;-70
2022/01/09 02:39:01;;;;;;;14.73;5.13;;;9.00;1.00;;;;;;5090490;28;20198;-75
2022/01/09 02:41:28;;;;;;;14.87;4.30;;;8.90;1.00;;;;;;5090579;28;20206;-70
2022/01/09 02:43:55;;;;;;;11.43;4.10;;;8.90;1.00;;;;;;5090217;28;20267;-70
2022/01/09 02:46:38;;;;;;;17.37;4.40;;;8.90;1.00;;;;;;5091081;28;20237;-70
2022/01/09 02:49:06;;;;;;;13.50;3.93;;;8.90;1.00;;;;;;5090163;28;20657;-71
2022/01/09 02:51:35;;;;;;;24.50;5.63;;;9.00;1.00;;;;;;5090759;28;20197;-70
2022/01/09 02:55:05;;;;;;;23.00;5.63;;;9.00;1.00;;;;;;5090000;28;20247;-70
2022/01/09 02:56:55;;;;;;;18.43;4.20;;;9.00;1.00;;;;;;5090154;28;20206;-69
2022/01/09 02:59:23;;;;;;;22.60;5.50;;;9.00;1.00;;;;;;5091770;28;20207;-69
2022/01/09 03:01:50;;;;;;;17.93;4.70;;;9.00;1.00;;;;;;5094515;28;20205;-68
2022/01/09 03:04:17;;;;;;;17.80;4.17;;;9.00;1.00;;;;;;5094146;28;20259;-69
2022/01/09 03:06:44;;;;;;;19.50;6.43;;;9.00;1.00;;;;;;5094289;28;20233;-70
2022/01/09 03:09:12;;;;;;;16.20;4.77;;;9.10;1.00;;;;;;5093965;28;20213;-70
2022/01/09 03:11:40;;;;;;;25.40;4.97;;;9.00;1.00;;;;;;5094341;28;20206;-69
2022/01/09 03:14:07;;;;;;;12.53;4.37;;;9.00;1.00;;;;;;5094107;28;20233;-69
2022/01/09 03:16:35;;;;;;;17.20;4.73;;;9.00;1.00;;;;;;5094168;28;20209;-69
2022/01/09 03:19:02;;;;;;;23.07;6.00;;;9.00;1.00;;;;;;5093968;28;20206;-69
2022/01/09 03:21:29;;;;;;;21.37;4.90;;;8.90;1.00;;;;;;5094150;28;20635;-71
2022/01/09 03:23:56;;;;;;;17.73;5.50;;;8.90;1.00;;;;;;5094262;28;20205;-69
2022/01/09 03:26:24;;;;;;;16.03;5.77;;;8.90;1.00;;;;;;5094192;28;20263;-75
2022/01/09 03:28:51;;;;;;;17.80;5.13;;;8.90;1.00;;;;;;5094192;28;20259;-69
2022/01/09 03:31:18;;;;;;;22.23;5.57;;;8.90;1.00;;;;;;5093644;28;20664;-74
2022/01/09 03:33:45;;;;;;;23.77;7.07;;;9.00;1.00;;;;;;5093809;28;20627;-68
2022/01/09 03:36:12;;;;;;;19.03;5.50;;;8.90;1.00;;;;;;5093687;28;20274;-74
2022/01/09 03:38:39;;;;;;;15.97;4.13;;;8.90;1.00;;;;;;5094105;28;20271;-68
2022/01/09 03:41:06;;;;;;;15.03;4.57;;;8.80;1.00;;;;;;5093228;28;20206;-72
2022/01/09 03:43:34;;;;;;;25.67;7.33;;;8.80;1.00;;;;;;5093874;28;20209;-73
2022/01/09 03:46:01;;;;;;;24.03;6.67;;;8.80;1.00;;;;;;5093214;28;20202;-75
2022/01/09 03:48:29;;;;;;;20.23;5.93;;;8.80;1.00;;;;;;5093593;28;20201;-68
2022/01/09 03:50:56;;;;;;;19.37;5.13;;;8.80;1.00;;;;;;5093776;28;20603;-69
2022/01/09 03:53:23;;;;;;;22.27;5.67;;;8.80;1.00;;;;;;5093985;28;20205;-71
2022/01/09 03:55:50;;;;;;;22.27;5.77;;;8.80;1.00;;;;;;5093764;28;20209;-69
2022/01/09 03:58:17;;;;;;;13.50;4.97;;;8.70;1.00;;;;;;5093265;28;20205;-69
2022/01/09 04:00:46;;;;;;;18.10;4.60;;;8.70;1.00;;;;;;5084141;28;20214;-71
2022/01/09 04:03:12;;;;;;;13.53;4.40;;;8.70;1.00;;;;;;5072697;28;20541;-68
2022/01/09 04:05:39;;;;;;;20.20;5.33;;;8.70;1.00;;;;;;5072962;28;20232;-68
2022/01/09 04:08:07;;;;;;;14.13;7.83;;;8.70;1.00;;;;;;5072610;28;20233;-68
2022/01/09 04:10:40;;;;;;;29.43;7.93;;;8.70;1.00;;;;;;5072082;28;20638;-68
2022/01/09 04:13:07;;;;;;;22.87;6.67;;;8.70;1.00;;;;;;5072493;28;20204;-68
2022/01/09 04:15:34;;;;;;;19.73;7.73;;;8.70;1.00;;;;;;5072875;28;20198;-71
2022/01/09 04:18:02;;;;;;;25.77;5.67;;;8.60;1.00;;;;;;5072344;28;20210;-68
2022/01/09 04:20:31;;;;;;;32.07;7.63;;;8.60;1.00;;;;;;5072829;28;20202;-68
2022/01/09 04:22:59;;;;;;;27.53;7.23;;;8.70;1.00;;;;;;5072558;28;20201;-68
2022/01/09 04:25:27;;;;;;;25.10;6.63;;;8.70;1.00;;;;;;5072584;28;20206;-68
2022/01/09 04:27:54;;;;;;;23.23;5.70;;;8.70;1.00;;;;;;5072788;28;20226;-67
2022/01/09 04:30:21;;;;;;;22.40;6.63;;;8.70;1.00;;;;;;5072552;28;20202;-68
2022/01/09 04:32:48;;;;;;;28.40;6.90;;;8.70;1.00;;;;;;5072784;28;20259;-71
2022/01/09 04:35:17;;;;;;;29.40;7.87;;;8.70;1.00;;;;;;5072149;28;20682;-71
2022/01/09 04:37:44;;;;;;;19.13;6.57;;;8.70;1.00;;;;;;5072662;28;20210;-70
2022/01/09 04:40:14;;;;;;;25.40;6.37;;;8.60;1.00;;;;;;5071707;28;20205;-69
2022/01/09 04:42:44;;;;;;;25.30;6.57;;;8.70;1.00;;;;;;5072338;28;20204;-69
2022/01/09 04:45:13;;;;;;;20.00;6.00;;;8.60;1.00;;;;;;5071896;28;20245;-69
2022/01/09 04:47:43;;;;;;;22.63;6.03;;;8.60;1.00;;;;;;5072359;28;20234;-75
2022/01/09 04:50:15;;;;;;;22.30;7.73;;;8.70;1.00;;;;;;5071843;28;20211;-73
2022/01/09 04:52:43;;;;;;;22.37;6.23;;;8.60;1.00;;;;;;5071945;28;20202;-73
2022/01/09 04:55:11;;;;;;;27.17;8.47;;;8.60;1.00;;;;;;5071666;28;20202;-72
2022/01/09 04:57:38;;;;;;;29.40;7.07;;;8.60;1.00;;;;;;5072048;28;20661;-68
2022/01/09 05:00:07;;;;;;;23.87;7.33;;;8.60;1.00;;;;;;5071943;28;20257;-68
2022/01/09 05:02:35;;;;;;;22.70;5.93;;;8.60;1.00;;;;;;5072003;28;20210;-69
2022/01/09 05:05:02;;;;;;;29.33;8.87;;;8.60;1.00;;;;;;5071360;28;20210;-70
2022/01/09 05:07:29;;;;;;;21.27;6.40;;;8.60;1.00;;;;;;5071567;28;20230;-72
2022/01/09 05:09:58;;;;;;;24.67;8.57;;;8.60;1.00;;;;;;5071795;28;20210;-73
2022/01/09 05:12:25;;;;;;;33.07;8.13;;;8.60;1.00;;;;;;5072101;28;20252;-71
2022/01/09 05:14:52;;;;;;;19.87;8.63;;;8.60;1.00;;;;;;5072183;28;20198;-73
2022/01/09 05:17:19;;;;;;;28.53;7.87;;;8.60;1.00;;;;;;5071170;28;20209;-74
2022/01/09 05:19:47;;;;;;;28.53;9.23;;;8.60;1.00;;;;;;5071706;28;20213;-69
2022/01/09 05:22:14;;;;;;;20.33;6.20;;;8.60;1.00;;;;;;5070601;28;20209;-69
2022/01/09 05:24:41;;;;;;;30.13;7.57;;;8.60;1.00;;;;;;5071597;28;20662;-69
2022/01/09 05:27:09;;;;;;;32.10;7.43;;;8.60;1.00;;;;;;5071214;28;20229;-67
2022/01/09 05:29:37;;;;;;;26.47;8.07;;;8.70;1.00;;;;;;5071673;28;20206;-71
2022/01/09 05:32:04;;;;;;;30.30;6.53;;;8.60;1.00;;;;;;5071072;28;20206;-67
2022/01/09 05:34:31;;;;;;;23.97;6.27;;;8.60;1.00;;;;;;5071372;28;20202;-68
2022/01/09 05:36:58;;;;;;;19.63;8.50;;;8.60;1.00;;;;;;5070545;28;20632;-69
2022/01/09 05:39:25;;;;;;;19.33;6.30;;;8.60;1.00;;;;;;5084992;28;20206;-68
2022/01/09 05:41:53;;;;;;;23.87;7.33;;;8.60;1.00;;;;;;5087683;28;20209;-72
2022/01/09 05:44:21;;;;;;;24.03;7.53;;;8.60;1.00;;;;;;5082972;28;20221;-71
2022/01/09 05:46:48;;;;;;;23.80;8.00;;;8.60;1.00;;;;;;5091002;28;20229;-68
2022/01/09 05:49:15;;;;;;;26.20;7.83;;;8.60;1.00;;;;;;5090536;28;20696;-69
2022/01/09 05:51:42;;;;;;;24.13;7.30;;;8.60;1.00;;;;;;5090694;28;20206;-71
2022/01/09 05:54:09;;;;;;;25.90;7.77;;;8.60;1.00;;;;;;5090316;28;20205;-71
2022/01/09 05:56:36;;;;;;;23.40;6.20;;;8.60;1.00;;;;;;5087594;28;20288;-70
2022/01/09 05:59:03;;;;;;;31.40;8.70;;;8.50;1.00;;;;;;5090241;28;20278;-73
2022/01/09 06:01:32;;;;;;;36.43;7.47;;;8.60;1.00;;;;;;5090911;28;20216;-69
2022/01/09 06:03:59;;;;;;;21.60;7.97;;;8.60;1.00;;;;;;5090540;28;20201;-69
2022/01/09 06:06:26;;;;;;;28.07;6.33;;;8.50;1.00;;;;;;5090901;28;20205;-70
2022/01/09 06:08:53;;;;;;;28.00;7.50;;;8.50;1.00;;;;;;5090854;28;20275;-69
2022/01/09 06:11:20;;;;;;;33.33;8.53;;;8.60;1.00;;;;;;5090523;28;20209;-69
2022/01/09 06:13:47;;;;;;;25.37;7.37;;;8.60;1.00;;;;;;5090636;28;20202;-73
2022/01/09 06:16:14;;;;;;;32.70;8.33;;;8.50;1.00;;;;;;5090124;28;20209;-69
2022/01/09 06:18:42;;;;;;;28.57;6.50;;;8.60;1.00;;;;;;5090718;28;20284;-69
2022/01/09 06:21:10;;;;;;;26.77;7.73;;;8.60;1.00;;;;;;5089967;28;20754;-70
2022/01/09 06:23:37;;;;;;;29.73;8.07;;;8.60;1.00;;;;;;5090485;28;20205;-73
2022/01/09 06:26:04;;;;;;;30.03;7.43;;;8.60;1.00;;;;;;5090240;28;20209;-69
2022/01/09 06:28:31;;;;;;;26.10;6.63;;;8.60;1.00;;;;;;5090590;28;20230;-69
2022/01/09 06:30:58;;;;;;;20.60;6.93;;;8.70;1.00;;;;;;5089872;28;20209;-69
2022/01/09 06:33:25;;;;;;;23.07;6.80;;;8.70;1.00;;;;;;5089349;28;20259;-69
2022/01/09 06:35:53;;;;;;;27.37;6.13;;;8.70;1.00;;;;;;5094344;28;20257;-70
2022/01/09 06:38:20;;;;;;;29.50;7.33;;;8.70;1.00;;;;;;5094510;28;20247;-71
2022/01/09 06:40:47;;;;;;;21.47;8.00;;;8.70;1.00;;;;;;5094696;28;20255;-72
2022/01/09 06:43:14;;;;;;;25.20;7.97;;;8.70;1.00;;;;;;5092621;28;20254;-72
2022/01/09 06:45:41;;;;;;;26.43;7.70;;;8.80;1.00;;;;;;5082330;28;20209;-69
2022/01/09 06:48:08;;;;;;;24.73;8.07;;;8.80;1.00;;;;;;5094039;28;20650;-70
2022/01/09 06:50:35;;;;;;;32.53;7.27;;;8.80;1.00;;;;;;5094135;28;20737;-72
2022/01/09 06:53:03;;;;;;;24.80;6.80;;;8.80;1.00;;;;;;5084872;28;20213;-71
2022/01/09 06:55:30;;;;;;;25.23;8.30;;;8.80;1.00;;;;;;5077016;28;20202;-71
2022/01/09 06:57:58;;;;;;;18.87;7.57;;;8.80;1.00;;;;;;5085860;28;20205;-72
2022/01/09 07:00:25;;;;;;;31.27;7.57;;;8.80;1.00;;;;;;5082552;28;20228;-71
2022/01/09 07:02:52;;;;;;;23.30;7.37;;;8.80;1.00;;;;;;5082546;28;20209;-71
2022/01/09 07:05:19;;;;;;;35.93;7.87;;;8.80;1.00;;;;;;5073694;28;20202;-71
2022/01/09 07:07:46;;;;;;;25.27;7.83;;;8.80;1.00;;;;;;5074069;28;20226;-69
2022/01/09 07:10:15;;;;;;;25.83;6.50;;;8.80;1.00;;;;;;5073642;28;20206;-70
2022/01/09 07:12:42;;;;;;;41.47;13.70;;;8.80;1.00;;;;;;5073952;28;20665;-71
2022/01/09 07:15:10;;;;;;;35.13;10.23;;;8.90;1.00;;;;;;5073621;28;20206;-71
2022/01/09 07:17:37;;;;;;;32.37;7.67;;;8.90;1.00;;;;;;5073805;28;20201;-71
2022/01/09 07:20:05;;;;;;;25.43;6.07;;;8.90;1.00;;;;;;5073564;28;20608;-71
2022/01/09 07:22:32;;;;;;;32.63;8.87;;;8.90;1.00;;;;;;5073868;28;20666;-72
2022/01/09 07:24:59;;;;;;;21.20;7.83;;;8.90;1.00;;;;;;5073211;28;20289;-71
2022/01/09 07:27:28;;;;;;;29.20;7.13;;;8.90;1.00;;;;;;5072997;28;20291;-71
2022/01/09 07:29:55;;;;;;;32.63;7.67;;;8.90;1.00;;;;;;5072673;28;20252;-71
2022/01/09 07:32:22;;;;;;;20.37;7.83;;;8.90;1.00;;;;;;5073250;28;20194;-71
2022/01/09 07:34:49;;;;;;;23.17;5.17;;;9.00;1.00;;;;;;5104746;28;20197;-70
2022/01/09 07:37:16;;;;;;;21.53;8.17;;;9.00;1.00;;;;;;5092484;28;20770;-71
2022/01/09 07:39:43;;;;;;;24.97;6.47;;;9.00;1.00;;;;;;5091716;28;20251;-71
2022/01/09 07:42:10;;;;;;;26.77;7.47;;;8.90;1.00;;;;;;5075889;28;20290;-71
2022/01/09 07:44:39;;;;;;;35.63;7.20;;;8.90;1.00;;;;;;5091711;28;20209;-70
2022/01/09 07:47:06;;;;;;;32.97;7.97;;;8.90;1.00;;;;;;5080922;28;20210;-70
2022/01/09 07:49:33;;;;;;;43.23;20.37;;;8.90;1.00;;;;;;5071293;28;20661;-69
2022/01/09 07:52:00;;;;;;;54.10;31.70;;;8.90;1.00;;;;;;5071157;28;20198;-71
2022/01/09 07:54:27;;;;;;;103.50;59.90;;;8.90;1.00;;;;;;5077353;28;20926;-71
2022/01/09 07:56:54;;;;;;;39.30;21.30;;;8.90;1.00;;;;;;5078562;28;20209;-70
2022/01/09 07:59:21;;;;;;;37.80;12.83;;;8.90;1.00;;;;;;5092730;28;20270;-71
2022/01/09 08:01:49;;;;;;;38.13;9.63;;;8.90;1.00;;;;;;5086632;28;20206;-71
2022/01/09 08:04:16;;;;;;;24.87;7.90;;;8.90;1.00;;;;;;5086618;28;20742;-71
2022/01/09 08:06:43;;;;;;;24.00;9.17;;;8.90;1.00;;;;;;5089294;28;20260;-71
2022/01/09 08:09:10;;;;;;;38.67;9.27;;;8.90;1.00;;;;;;5091995;28;20283;-70
2022/01/09 08:11:37;;;;;;;32.20;9.23;;;8.90;1.00;;;;;;5093120;28;20206;-71
2022/01/09 08:14:04;;;;;;;28.80;8.87;;;8.90;1.00;;;;;;5092508;28;20201;-70
2022/01/09 08:16:31;;;;;;;20.93;8.50;;;8.70;1.00;;;;;;5092512;28;20214;-69
2022/01/09 08:19:00;;;;;;;22.30;8.03;;;8.70;1.00;;;;;;5092365;28;20216;-71
2022/01/09 08:21:27;;;;;;;15.63;7.10;;;8.60;1.00;;;;;;5091928;28;20230;-71
2022/01/09 08:23:53;;;;;;;21.20;8.47;;;8.60;1.00;;;;;;5093097;28;20197;-72
2022/01/09 08:26:20;;;;;;;18.40;7.27;;;8.60;1.00;;;;;;5092865;28;20205;-71
2022/01/09 08:28:48;;;;;;;31.43;10.90;;;8.50;1.00;;;;;;5092713;28;20229;-73
2022/01/09 08:31:16;;;;;;;26.80;6.20;;;8.60;1.00;;;;;;5092204;28;20318;-70
2022/01/09 08:33:43;;;;;;;19.13;6.37;;;8.50;1.00;;;;;;5089934;28;20205;-70
2022/01/09 08:36:11;;;;;;;14.50;4.30;;;8.50;1.00;;;;;;5081108;28;20201;-71
2022/01/09 08:38:38;;;;;;;10.53;3.77;;;8.50;1.00;;;;;;5092359;28;20630;-73
2022/01/09 08:41:06;;;;;;;18.87;6.70;;;8.50;1.00;;;;;;5092168;28;20255;-72
2022/01/09 08:43:36;;;;;;;23.57;10.23;;;8.60;1.00;;;;;;5092255;28;20745;-69
2022/01/09 08:46:03;;;;;;;10.17;5.87;;;8.70;1.00;;;;;;5092218;28;20201;-72
2022/01/09 08:48:30;;;;;;;18.10;10.00;;;8.70;1.00;;;;;;5092405;28;20270;-72
2022/01/09 08:50:57;;;;;;;24.83;8.50;;;8.60;1.00;;;;;;5092219;28;20669;-72
2022/01/09 08:53:26;;;;;;;21.83;8.47;;;8.60;1.00;;;;;;5086049;28;20260;-75
2022/01/09 08:55:53;;;;;;;21.67;9.00;;;8.60;1.00;;;;;;5090759;28;20205;-76
2022/01/09 08:58:19;;;;;;;19.23;6.47;;;8.60;1.00;;;;;;5102710;28;20263;-74
2022/01/09 09:00:46;;;;;;;14.73;5.20;;;8.60;1.00;;;;;;5074937;28;20260;-71
2022/01/09 09:03:13;;;;;;;17.03;4.40;;;8.50;1.00;;;;;;5087047;28;20213;-72
2022/01/09 09:05:40;;;;;;;14.77;5.53;;;8.50;1.00;;;;;;5078467;28;20256;-72
2022/01/09 09:08:07;;;;;;;15.63;4.00;;;8.60;1.00;;;;;;5080981;28;20233;-72
2022/01/09 09:10:36;;;;;;;14.50;4.83;;;8.60;1.00;;;;;;5089901;28;20204;-72
2022/01/09 09:13:03;;;;;;;10.83;4.00;;;8.60;1.00;;;;;;5090371;28;20803;-72
2022/01/09 09:15:30;;;;;;;8.40;3.67;;;8.60;1.00;;;;;;5083962;28;20209;-72
2022/01/09 09:17:57;;;;;;;13.63;3.90;;;8.60;1.00;;;;;;5077754;28;20210;-71
2022/01/09 09:20:24;;;;;;;14.63;3.77;;;8.60;1.00;;;;;;5075911;28;20205;-72
2022/01/09 09:22:52;;;;;;;13.63;3.57;;;8.60;1.00;;;;;;5086685;28;20205;-72
2022/01/09 09:25:19;;;;;;;16.30;5.50;;;8.50;1.00;;;;;;5085073;28;20252;-76
2022/01/09 09:27:48;;;;;;;8.23;3.60;;;8.50;1.00;;;;;;5078995;28;20630;-77
2022/01/09 09:30:15;;;;;;;10.77;4.00;;;8.50;1.00;;;;;;5089328;28;20275;-76
2022/01/09 09:32:43;;;;;;;10.90;2.33;;;8.50;1.00;;;;;;5087197;28;20210;-77
2022/01/09 09:35:11;;;;;;;14.23;6.10;;;8.50;1.00;;;;;;5084482;28;20206;-77
2022/01/09 09:37:39;;;;;;;17.00;6.77;;;8.60;1.00;;;;;;5104328;27;20255;-78
2022/01/09 09:40:07;;;;;;;10.63;4.07;;;8.50;1.00;;;;;;5074615;28;20651;-77
2022/01/09 09:42:34;;;;;;;8.60;3.10;;;8.60;1.00;;;;;;5077961;28;20263;-76
2022/01/09 09:45:05;;;;;;;13.03;3.63;;;8.60;1.00;;;;;;5080628;28;20210;-77
2022/01/09 09:47:34;;;;;;;9.47;3.97;;;8.70;1.00;;;;;;5079377;28;20327;-77
2022/01/09 09:50:02;;;;;;;16.53;10.53;;;8.70;1.00;;;;;;5082403;28;20229;-76
2022/01/09 09:52:29;;;;;;;18.67;9.77;;;8.70;1.00;;;;;;5083573;28;20271;-77
2022/01/09 09:54:56;;;;;;;13.83;7.47;;;8.70;1.00;;;;;;5080860;28;20213;-76
2022/01/09 09:57:24;;;;;;;18.90;9.70;;;8.70;1.00;;;;;;5086803;28;20209;-75
2022/01/09 09:59:58;;;;;;;20.60;9.60;;;8.60;1.00;;;;;;5077720;28;20743;-78
2022/01/09 10:02:27;;;;;;;12.17;4.73;;;8.60;1.00;;;;;;5089241;28;20201;-77
2022/01/09 10:05:02;;;;;;;20.43;7.10;;;8.70;1.00;;;;;;5082260;28;20235;-79
2022/01/09 10:07:29;;;;;;;12.83;6.57;;;8.70;1.00;;;;;;5080284;28;20209;-79
2022/01/09 10:10:00;;;;;;;23.43;14.37;;;8.90;1.00;;;;;;5074183;28;20285;-81
2022/01/09 10:12:30;;;;;;;17.07;5.53;;;9.00;1.00;;;;;;5074604;28;20202;-82
2022/01/09 10:14:59;;;;;;;15.07;5.00;;;9.00;1.00;;;;;;5073744;28;20210;-81
2022/01/09 10:17:28;;;;;;;12.67;4.37;;;9.10;1.00;;;;;;5072424;28;20259;-78
2022/01/09 10:19:57;;;;;;;15.43;3.90;;;9.10;1.00;;;;;;5069448;28;20734;-79
2022/01/09 10:22:33;;;;;;;12.73;3.87;;;9.20;1.00;;;;;;5078644;28;20263;-81
2022/01/09 10:25:22;;;;;;;21.00;5.67;;;9.30;1.00;;;;;;5072314;28;21300;-79
2022/01/09 10:27:50;;;;;;;12.13;4.10;;;9.30;1.00;;;;;;5073329;28;20206;-80
2022/01/09 10:30:21;;;;;;;13.83;4.43;;;9.40;1.00;;;;;;5078848;28;20652;-82
2022/01/09 10:32:55;;;;;;;8.77;3.47;;;9.60;1.00;;;;;;5082388;28;20944;-84
2022/01/09 10:35:23;;;;;;;15.43;5.00;;;9.60;1.00;;;;;;5082559;28;20239;-89
2022/01/09 10:38:02;;;;;;;14.70;3.93;;;9.70;1.00;;;;;;5082575;28;20221;-82
2022/01/09 10:40:30;;;;;;;8.17;3.17;;;9.70;1.00;;;;;;5083801;28;20201;-82
2022/01/09 10:43:06;;;;;;;9.27;4.10;;;9.50;1.00;;;;;;5081359;28;20198;-76
2022/01/09 10:45:34;;;;;;;8.20;3.67;;;9.50;1.00;;;;;;5082445;28;20726;-77
2022/01/09 10:48:08;;;;;;;10.77;4.77;;;9.50;1.00;;;;;;5078355;28;20213;-85
2022/01/09 10:50:38;;;;;;;12.00;5.67;;;9.60;1.00;;;;;;5077319;28;20261;-84
2022/01/09 10:53:20;;;;;;;27.50;12.87;;;9.70;1.00;;;;;;5076353;28;20206;-87
2022/01/09 10:55:49;;;;;;;17.87;4.53;;;9.60;1.00;;;;;;5079459;28;20258;-81
2022/01/09 10:58:22;;;;;;;9.40;4.20;;;9.50;1.00;;;;;;5083713;28;20205;-80
2022/01/09 11:01:06;;;;;;;18.50;4.13;;;9.50;1.00;;;;;;5079661;28;20644;-85
2022/01/09 11:03:35;;;;;;;18.87;4.77;;;9.50;1.00;;;;;;5081298;28;20630;-84
2022/01/09 11:06:03;;;;;;;22.17;7.70;;;9.50;1.00;;;;;;5078546;28;20252;-83
2022/01/09 11:08:31;;;;;;;10.50;3.80;;;9.40;1.00;;;;;;5079756;28;20233;-81
2022/01/09 11:10:59;;;;;;;15.23;3.63;;;9.40;1.00;;;;;;5081272;28;20202;-79
2022/01/09 11:13:28;;;;;;;14.27;6.03;;;9.40;1.00;;;;;;5082357;28;20213;-78
2022/01/09 11:18:44;;;;;;;19.10;5.87;;;9.40;1.00;;;;;;5080925;28;20340;-82
2022/01/09 11:21:11;;;;;;;15.10;3.87;;;9.30;1.00;;;;;;5074310;28;20206;-77
2022/01/09 11:23:45;;;;;;;10.23;3.10;;;9.20;1.00;;;;;;5081239;28;20206;-78
2022/01/09 11:26:15;;;;;;;11.63;3.43;;;9.20;1.00;;;;;;5074787;28;20233;-79
2022/01/09 11:28:44;;;;;;;8.30;3.27;;;9.10;1.00;;;;;;5084617;28;20251;-81
2022/01/09 11:31:23;;;;;;;10.90;3.40;;;9.10;1.00;;;;;;5089973;28;20201;-83
2022/01/09 11:34:00;;;;;;;8.43;3.03;;;9.10;1.00;;;;;;5075725;28;20206;-85
2022/01/09 11:36:36;;;;;;;7.70;3.77;;;9.20;1.00;;;;;;5079510;28;20284;-82
2022/01/09 11:39:12;;;;;;;12.07;3.30;;;9.20;1.00;;;;;;5093859;28;20244;-79
2022/01/09 11:41:40;;;;;;;14.47;4.20;;;9.20;1.00;;;;;;5094242;28;20197;-79
2022/01/09 11:44:09;;;;;;;10.43;5.03;;;9.30;1.00;;;;;;5093196;28;20669;-84
2022/01/09 11:46:58;;;;;;;9.93;4.07;;;9.30;1.00;;;;;;5094642;28;20292;-84
2022/01/09 11:49:27;;;;;;;12.47;4.17;;;9.30;1.00;;;;;;5094383;28;20755;-82
2022/01/09 11:51:56;;;;;;;14.67;4.90;;;9.30;1.00;;;;;;5080541;28;20202;-79
2022/01/09 11:54:24;;;;;;;11.67;4.30;;;9.40;1.00;;;;;;5073872;28;20260;-83
2022/01/09 11:57:00;;;;;;;16.23;3.93;;;9.40;1.00;;;;;;5074151;28;20206;-80
2022/01/09 11:59:30;;;;;;;19.33;5.67;;;9.40;1.00;;;;;;5073753;28;20632;-80
2022/01/09 12:02:01;;;;;;;9.40;4.57;;;9.30;1.00;;;;;;5073226;28;20627;-78
2022/01/09 12:04:55;;;;;;;10.13;3.23;;;9.40;1.00;;;;;;5073412;28;20631;-77
2022/01/09 12:08:03;;;;;;;14.77;4.93;;;9.40;1.00;;;;;;5076199;28;20217;-80
2022/01/09 12:10:41;;;;;;;21.63;6.17;;;9.40;1.00;;;;;;5074178;28;20222;-83
2022/01/09 12:13:38;;;;;;;10.30;3.57;;;9.40;1.00;;;;;;5086315;28;20213;-82
2022/01/09 12:16:08;;;;;;;12.10;3.13;;;9.30;1.00;;;;;;5082012;28;20210;-81
2022/01/09 12:18:45;;;;;;;11.80;3.60;;;9.30;1.00;;;;;;5091026;28;20296;-80
2022/01/09 12:21:51;;;;;;;11.70;5.47;;;9.30;1.00;;;;;;5083548;28;20217;-86
2022/01/09 12:24:38;;;;;;;7.97;2.60;;;9.40;1.00;;;;;;5094229;28;20295;-85
2022/01/09 12:27:38;;;;;;;7.17;3.00;;;9.50;1.00;;;;;;5081497;28;20296;-81
2022/01/09 12:30:07;;;;;;;8.00;2.77;;;9.60;1.00;;;;;;5091804;28;20229;-81
2022/01/09 12:32:39;;;;;;;6.30;3.17;;;9.60;1.00;;;;;;5091587;28;20209;-82
2022/01/09 12:35:14;;;;;;;13.87;4.90;;;9.60;99.90;;;;;;5092782;28;20255;-83
2022/01/09 12:37:47;;;;;;;12.70;5.37;;;9.50;99.90;;;;;;5092809;28;20258;-83
2022/01/09 12:40:16;;;;;;;12.13;4.43;;;9.50;99.90;;;;;;5093088;28;20205;-85
2022/01/09 12:42:46;;;;;;;13.00;5.70;;;9.40;99.90;;;;;;5093819;28;20258;-84
2022/01/09 12:45:13;;;;;;;16.20;9.47;;;9.40;1.00;;;;;;5093509;28;20681;-88
2022/01/09 12:47:41;;;;;;;14.57;7.40;;;9.40;1.00;;;;;;5093407;28;20707;-87
2022/01/09 12:50:08;;;;;;;19.83;12.43;;;9.40;1.00;;;;;;5092763;28;20249;-88
2022/01/09 12:52:35;;;;;;;13.63;9.20;;;9.40;1.00;;;;;;5093381;28;20202;-82
2022/01/09 12:55:08;;;;;;;10.23;3.80;;;9.50;1.00;;;;;;5092564;28;20243;-79
2022/01/09 12:57:50;;;;;;;11.40;5.20;;;9.40;1.00;;;;;;5092638;28;20213;-86
2022/01/09 13:00:24;;;;;;;12.90;5.03;;;9.40;1.00;;;;;;5092591;28;20209;-83
2022/01/09 13:02:53;;;;;;;15.57;5.30;;;9.40;1.00;;;;;;5093303;28;20206;-83
2022/01/09 13:05:22;;;;;;;11.17;4.23;;;9.40;1.00;;;;;;5092699;28;20202;-84
2022/01/09 13:07:56;;;;;;;19.07;7.80;;;9.40;1.00;;;;;;5092730;28;20201;-84
2022/01/09 13:10:30;;;;;;;11.27;3.97;;;9.40;1.00;;;;;;5091607;28;20324;-78